sensor_id;sensor_type;location;lat;lon;timestamp;pressure;altitude;pressure_sealevel;temperature;humidity
23164;BME280;31429;42.674;23.350;2022-09-09T00:00:08;94884.25;;;17.34;100.00
23164;BME280;31429;42.674;23.350;2022-09-09T00:01:22;94747.66;;;16.60;100.00
23164;BME280;31429;42.674;23.350;2022-09-09T00:02:28;95016.28;;;18.00;100.00
23164;BME280;31429;42.674;23.350;2022-09-09T00:03:35;94996.63;;;17.97;100.00
23164;BME280;31429;42.674;23.350;2022-09-09T00:05:12;94911.91;;;17.46;100.00
23164;BME280;31429;42.674;23.350;2022-09-09T00:06:21;95007.13;;;17.82;100.00
23164;BME280;31429;42.674;23.350;2022-09-09T00:07:34;95002.84;;;17.80;100.00
23164;BME280;31429;42.674;23.350;2022-09-09T00:08:48;94822.69;;;16.71;100.00
23164;BME280;31429;42.674;23.350;2022-09-09T00:09:59;95005.78;;;17.89;100.00
23164;BME280;31429;42.674;23.350;2022-09-09T00:11:04;94883.34;;;17.20;100.00
23164;BME280;31429;42.674;23.350;2022-09-09T00:12:11;94981.78;;;17.87;100.00
23164;BME280;31429;42.674;23.350;2022-09-09T00:13:17;94941.66;;;17.53;100.00
23164;BME280;31429;42.674;23.350;2022-09-09T00:14:25;94968.94;;;17.85;100.00
23164;BME280;31429;42.674;23.350;2022-09-09T00:15:56;94941.91;;;17.62;100.00
23164;BME280;31429;42.674;23.350;2022-09-09T00:17:01;94801.47;;;16.80;100.00
23164;BME280;31429;42.674;23.350;2022-09-09T00:18:26;94970.75;;;17.56;100.00
23164;BME280;31429;42.674;23.350;2022-09-09T00:19:52;94774.81;;;16.37;100.00
23164;BME280;31429;42.674;23.350;2022-09-09T00:21:18;94873.03;;;17.06;100.00
23164;BME280;31429;42.674;23.350;2022-09-09T00:22:24;94947.66;;;17.53;100.00
23164;BME280;31429;42.674;23.350;2022-09-09T00:23:29;94791.91;;;16.68;100.00
23164;BME280;31429;42.674;23.350;2022-09-09T00:24:37;94900.66;;;17.47;100.00
23164;BME280;31429;42.674;23.350;2022-09-09T00:25:44;94765.25;;;16.67;100.00
23164;BME280;31429;42.674;23.350;2022-09-09T00:26:49;94731.59;;;16.41;100.00
23164;BME280;31429;42.674;23.350;2022-09-09T00:27:52;94772.09;;;16.69;100.00
23164;BME280;31429;42.674;23.350;2022-09-09T00:29:05;94965.94;;;18.05;100.00
23164;BME280;31429;42.674;23.350;2022-09-09T00:30:16;94993.66;;;18.03;100.00
23164;BME280;31429;42.674;23.350;2022-09-09T00:31:37;94892.25;;;17.57;100.00
23164;BME280;31429;42.674;23.350;2022-09-09T00:32:38;94923.91;;;17.75;100.00
23164;BME280;31429;42.674;23.350;2022-09-09T00:33:40;94951.19;;;17.93;100.00
23164;BME280;31429;42.674;23.350;2022-09-09T00:34:48;94853.81;;;17.24;100.00
23164;BME280;31429;42.674;23.350;2022-09-09T00:35:54;94685.81;;;16.30;100.00
23164;BME280;31429;42.674;23.350;2022-09-09T00:36:57;94803.13;;;16.95;100.00
23164;BME280;31429;42.674;23.350;2022-09-09T00:38:01;94884.88;;;17.37;100.00
23164;BME280;31429;42.674;23.350;2022-09-09T00:39:12;94663.06;;;16.08;100.00
23164;BME280;31429;42.674;23.350;2022-09-09T00:40:23;94703.97;;;16.15;100.00
23164;BME280;31429;42.674;23.350;2022-09-09T00:41:42;94860.00;;;17.22;100.00
23164;BME280;31429;42.674;23.350;2022-09-09T00:42:54;94797.44;;;16.76;100.00
23164;BME280;31429;42.674;23.350;2022-09-09T00:44:07;94948.66;;;17.79;100.00
23164;BME280;31429;42.674;23.350;2022-09-09T00:45:41;94813.97;;;17.14;100.00
23164;BME280;31429;42.674;23.350;2022-09-09T00:46:53;94889.78;;;17.42;100.00
23164;BME280;31429;42.674;23.350;2022-09-09T00:47:56;94660.50;;;15.94;100.00
23164;BME280;31429;42.674;23.350;2022-09-09T00:49:04;94933.13;;;17.79;100.00
23164;BME280;31429;42.674;23.350;2022-09-09T00:50:28;94835.03;;;17.08;100.00
23164;BME280;31429;42.674;23.350;2022-09-09T00:51:43;94680.75;;;15.86;100.00
23164;BME280;31429;42.674;23.350;2022-09-09T00:52:57;94750.00;;;16.35;100.00
23164;BME280;31429;42.674;23.350;2022-09-09T00:54:23;94964.19;;;17.51;100.00
23164;BME280;31429;42.674;23.350;2022-09-09T00:55:37;94794.75;;;16.63;100.00
23164;BME280;31429;42.674;23.350;2022-09-09T00:56:47;94889.25;;;17.22;100.00
23164;BME280;31429;42.674;23.350;2022-09-09T00:57:54;94945.25;;;17.64;100.00
23164;BME280;31429;42.674;23.350;2022-09-09T00:59:04;94763.22;;;16.58;100.00
23164;BME280;31429;42.674;23.350;2022-09-09T01:01:37;94857.16;;;17.12;100.00
23164;BME280;31429;42.674;23.350;2022-09-09T01:02:48;94692.47;;;16.06;100.00
23164;BME280;31429;42.674;23.350;2022-09-09T01:03:53;94959.00;;;17.51;100.00
23164;BME280;31429;42.674;23.350;2022-09-09T01:04:57;94833.75;;;16.87;100.00
23164;BME280;31429;42.674;23.350;2022-09-09T01:06:32;94658.16;;;15.76;100.00
23164;BME280;31429;42.674;23.350;2022-09-09T01:07:34;94949.25;;;17.56;100.00
23164;BME280;31429;42.674;23.350;2022-09-09T01:09:04;94689.97;;;16.04;100.00
23164;BME280;31429;42.674;23.350;2022-09-09T01:12:34;94698.16;;;15.83;100.00
23164;BME280;31429;42.674;23.350;2022-09-09T01:13:40;94791.03;;;16.39;100.00
23164;BME280;31429;42.674;23.350;2022-09-09T01:14:47;94847.22;;;16.78;100.00
23164;BME280;31429;42.674;23.350;2022-09-09T01:15:50;94662.47;;;15.61;100.00
23164;BME280;31429;42.674;23.350;2022-09-09T01:16:56;94652.56;;;15.55;100.00
23164;BME280;31429;42.674;23.350;2022-09-09T01:18:06;94702.81;;;15.76;100.00
23164;BME280;31429;42.674;23.350;2022-09-09T01:19:23;94940.09;;;17.36;100.00
23164;BME280;31429;42.674;23.350;2022-09-09T01:20:39;94673.53;;;15.63;100.00
23164;BME280;31429;42.674;23.350;2022-09-09T01:21:54;94938.78;;;17.29;100.00
23164;BME280;31429;42.674;23.350;2022-09-09T01:23:47;94682.16;;;15.48;100.00
23164;BME280;31429;42.674;23.350;2022-09-09T01:25:15;94919.53;;;17.06;100.00
23164;BME280;31429;42.674;23.350;2022-09-09T01:26:26;94942.13;;;17.17;100.00
23164;BME280;31429;42.674;23.350;2022-09-09T01:34:11;94662.28;;;15.50;100.00
23164;BME280;31429;42.674;23.350;2022-09-09T01:35:41;94971.38;;;17.17;100.00
23164;BME280;31429;42.674;23.350;2022-09-09T01:36:57;94680.50;;;15.47;100.00
23164;BME280;31429;42.674;23.350;2022-09-09T01:38:33;94962.22;;;17.12;100.00
23164;BME280;31429;42.674;23.350;2022-09-09T01:39:50;94860.28;;;16.61;100.00
23164;BME280;31429;42.674;23.350;2022-09-09T01:41:05;94752.34;;;15.81;100.00
23164;BME280;31429;42.674;23.350;2022-09-09T01:42:12;94913.81;;;16.87;100.00
23164;BME280;31429;42.674;23.350;2022-09-09T01:43:16;94952.75;;;17.12;100.00
23164;BME280;31429;42.674;23.350;2022-09-09T01:48:38;94710.44;;;15.49;100.00
23164;BME280;31429;42.674;23.350;2022-09-09T01:50:00;94673.13;;;15.25;100.00
23164;BME280;31429;42.674;23.350;2022-09-09T01:51:22;94871.69;;;16.43;100.00
23164;BME280;31429;42.674;23.350;2022-09-09T01:52:24;94843.28;;;16.29;100.00
23164;BME280;31429;42.674;23.350;2022-09-09T01:53:26;94973.69;;;16.94;100.00
23164;BME280;31429;42.674;23.350;2022-09-09T01:54:33;94696.63;;;15.35;100.00
23164;BME280;31429;42.674;23.350;2022-09-09T01:55:42;94778.97;;;15.82;100.00
23164;BME280;31429;42.674;23.350;2022-09-09T01:56:54;94911.09;;;16.60;100.00
23164;BME280;31429;42.674;23.350;2022-09-09T01:58:12;94964.44;;;17.04;100.00
23164;BME280;31429;42.674;23.350;2022-09-09T01:59:42;94987.97;;;16.99;100.00
23164;BME280;31429;42.674;23.350;2022-09-09T02:00:54;94970.50;;;16.89;100.00
23164;BME280;31429;42.674;23.350;2022-09-09T02:02:36;94877.38;;;16.34;100.00
23164;BME280;31429;42.674;23.350;2022-09-09T02:04:02;94791.69;;;15.85;100.00
23164;BME280;31429;42.674;23.350;2022-09-09T02:05:13;94955.50;;;16.95;100.00
23164;BME280;31429;42.674;23.350;2022-09-09T02:06:38;94712.16;;;15.33;100.00
23164;BME280;31429;42.674;23.350;2022-09-09T02:08:06;94783.59;;;15.91;100.00
23164;BME280;31429;42.674;23.350;2022-09-09T02:09:11;94858.31;;;16.50;100.00
23164;BME280;31429;42.674;23.350;2022-09-09T02:10:28;94874.22;;;16.58;100.00
23164;BME280;31429;42.674;23.350;2022-09-09T02:11:41;94769.16;;;16.02;100.00
23164;BME280;31429;42.674;23.350;2022-09-09T02:12:49;94824.03;;;16.34;100.00
23164;BME280;31429;42.674;23.350;2022-09-09T02:14:22;94956.69;;;17.04;100.00
23164;BME280;31429;42.674;23.350;2022-09-09T02:15:30;94931.88;;;16.87;100.00
23164;BME280;31429;42.674;23.350;2022-09-09T02:16:40;94970.81;;;16.98;100.00
23164;BME280;31429;42.674;23.350;2022-09-09T02:18:25;94672.22;;;15.56;100.00
23164;BME280;31429;42.674;23.350;2022-09-09T02:19:31;94744.19;;;15.89;100.00
23164;BME280;31429;42.674;23.350;2022-09-09T02:20:38;94750.41;;;16.15;100.00
23164;BME280;31429;42.674;23.350;2022-09-09T02:21:43;94817.25;;;16.61;100.00
23164;BME280;31429;42.674;23.350;2022-09-09T02:23:12;94860.13;;;16.64;100.00
23164;BME280;31429;42.674;23.350;2022-09-09T02:24:18;94851.72;;;16.60;100.00
23164;BME280;31429;42.674;23.350;2022-09-09T02:25:22;94645.91;;;15.35;100.00
23164;BME280;31429;42.674;23.350;2022-09-09T02:26:28;94839.78;;;16.44;100.00
23164;BME280;31429;42.674;23.350;2022-09-09T02:28:12;94783.59;;;15.91;100.00
23164;BME280;31429;42.674;23.350;2022-09-09T02:31:39;94913.22;;;16.54;100.00
23164;BME280;31429;42.674;23.350;2022-09-09T02:32:43;94937.41;;;16.81;100.00
23164;BME280;31429;42.674;23.350;2022-09-09T02:33:51;94670.38;;;14.98;100.00
23164;BME280;31429;42.674;23.350;2022-09-09T02:34:57;94831.50;;;15.95;100.00
23164;BME280;31429;42.674;23.350;2022-09-09T02:37:47;94664.59;;;14.95;100.00
23164;BME280;31429;42.674;23.350;2022-09-09T02:39:10;94705.78;;;15.25;100.00
23164;BME280;31429;42.674;23.350;2022-09-09T02:40:44;94781.06;;;15.75;100.00
23164;BME280;31429;42.674;23.350;2022-09-09T02:41:48;94945.31;;;16.64;100.00
23164;BME280;31429;42.674;23.350;2022-09-09T02:42:52;94941.81;;;16.49;100.00
23164;BME280;31429;42.674;23.350;2022-09-09T02:43:57;94847.16;;;15.92;100.00
23164;BME280;31429;42.674;23.350;2022-09-09T02:44:59;94786.13;;;15.47;100.00
23164;BME280;31429;42.674;23.350;2022-09-09T02:48:54;94803.56;;;15.42;100.00
23164;BME280;31429;42.674;23.350;2022-09-09T02:50:27;94832.09;;;15.55;100.00
23164;BME280;31429;42.674;23.350;2022-09-09T02:51:52;94862.78;;;15.89;100.00
23164;BME280;31429;42.674;23.350;2022-09-09T02:53:23;94953.88;;;16.49;100.00
23164;BME280;31429;42.674;23.350;2022-09-09T02:54:47;94802.25;;;15.35;100.00
23164;BME280;31429;42.674;23.350;2022-09-09T02:56:19;94666.19;;;14.66;100.00
23164;BME280;31429;42.674;23.350;2022-09-09T03:00:09;94949.25;;;16.26;100.00
23164;BME280;31429;42.674;23.350;2022-09-09T03:01:20;94676.56;;;14.49;100.00
23164;BME280;31429;42.674;23.350;2022-09-09T03:02:36;94953.22;;;16.31;100.00
23164;BME280;31429;42.674;23.350;2022-09-09T03:42:29;94662.38;;;14.58;100.00
23164;BME280;31429;42.674;23.350;2022-09-09T03:43:37;94811.63;;;15.36;100.00
23164;BME280;31429;42.674;23.350;2022-09-09T03:44:42;94779.88;;;15.35;100.00
23164;BME280;31429;42.674;23.350;2022-09-09T03:46:04;94752.59;;;15.17;100.00
23164;BME280;31429;42.674;23.350;2022-09-09T03:47:07;94943.72;;;16.32;100.00
23164;BME280;31429;42.674;23.350;2022-09-09T03:48:09;94947.38;;;16.28;100.00
23164;BME280;31429;42.674;23.350;2022-09-09T03:49:54;94792.63;;;15.23;100.00
23164;BME280;31429;42.674;23.350;2022-09-09T03:50:55;94658.72;;;14.46;100.00
23164;BME280;31429;42.674;23.350;2022-09-09T03:52:02;94815.03;;;15.36;100.00
23164;BME280;31429;42.674;23.350;2022-09-09T03:53:07;94962.38;;;16.21;100.00
23164;BME280;31429;42.674;23.350;2022-09-09T03:54:47;94972.78;;;16.20;100.00
23164;BME280;31429;42.674;23.350;2022-09-09T03:55:55;94782.91;;;15.12;100.00
23164;BME280;31429;42.674;23.350;2022-09-09T03:59:44;94956.75;;;16.15;100.00
23164;BME280;31429;42.674;23.350;2022-09-09T04:02:51;94959.91;;;16.20;100.00
23164;BME280;31429;42.674;23.350;2022-09-09T04:04:52;94970.88;;;16.07;100.00
23164;BME280;31429;42.674;23.350;2022-09-09T04:08:30;94933.00;;;15.63;100.00
23164;BME280;31429;42.674;23.350;2022-09-09T04:09:33;94713.16;;;14.38;100.00
23164;BME280;31429;42.674;23.350;2022-09-09T04:11:05;94715.16;;;14.49;100.00
23164;BME280;31429;42.674;23.350;2022-09-09T04:12:08;94781.41;;;15.08;100.00
23164;BME280;31429;42.674;23.350;2022-09-09T04:13:14;94694.09;;;14.25;100.00
23164;BME280;31429;42.674;23.350;2022-09-09T04:14:43;94698.97;;;14.14;100.00
23164;BME280;31429;42.674;23.350;2022-09-09T04:16:36;94710.03;;;14.49;100.00
23164;BME280;31429;42.674;23.350;2022-09-09T04:18:07;94798.28;;;15.29;100.00
23164;BME280;31429;42.674;23.350;2022-09-09T04:19:29;94700.47;;;14.51;100.00
23164;BME280;31429;42.674;23.350;2022-09-09T04:21:13;94962.47;;;16.04;100.00
23164;BME280;31429;42.674;23.350;2022-09-09T04:22:17;94849.63;;;15.48;100.00
23164;BME280;31429;42.674;23.350;2022-09-09T04:23:21;94983.28;;;16.01;100.00
23164;BME280;31429;42.674;23.350;2022-09-09T04:24:26;94698.09;;;14.31;100.00
23164;BME280;31429;42.674;23.350;2022-09-09T04:25:49;94673.47;;;14.27;100.00
23164;BME280;31429;42.674;23.350;2022-09-09T04:26:57;94833.91;;;15.37;100.00
23164;BME280;31429;42.674;23.350;2022-09-09T04:28:11;94959.97;;;16.18;100.00
23164;BME280;31429;42.674;23.350;2022-09-09T04:50:36;94921.53;;;16.43;100.00
23164;BME280;31429;42.674;23.350;2022-09-09T04:51:37;94953.25;;;16.75;100.00
23164;BME280;31429;42.674;23.350;2022-09-09T04:52:38;94651.38;;;14.85;100.00
23164;BME280;31429;42.674;23.350;2022-09-09T04:53:59;94804.44;;;16.02;100.00
23164;BME280;31429;42.674;23.350;2022-09-09T04:55:02;94953.81;;;16.94;100.00
23164;BME280;31429;42.674;23.350;2022-09-09T04:56:05;94729.19;;;15.51;100.00
23164;BME280;31429;42.674;23.350;2022-09-09T04:57:07;94884.22;;;16.49;100.00
23164;BME280;31429;42.674;23.350;2022-09-09T04:58:28;94876.06;;;16.27;100.00
23164;BME280;31429;42.674;23.350;2022-09-09T04:59:29;94954.38;;;16.85;100.00
23164;BME280;31429;42.674;23.350;2022-09-09T05:00:32;94856.25;;;16.27;100.00
23164;BME280;31429;42.674;23.350;2022-09-09T05:01:34;94729.94;;;15.53;100.00
23164;BME280;31429;42.674;23.350;2022-09-09T05:02:37;94929.16;;;16.60;100.00
23164;BME280;31429;42.674;23.350;2022-09-09T05:03:40;94788.94;;;15.88;100.00
23164;BME280;31429;42.674;23.350;2022-09-09T05:04:43;94903.94;;;16.50;100.00
23164;BME280;31429;42.674;23.350;2022-09-09T05:05:46;94816.63;;;15.84;100.00
23164;BME280;31429;42.674;23.350;2022-09-09T05:06:49;94907.44;;;16.49;100.00
23164;BME280;31429;42.674;23.350;2022-09-09T05:07:52;94836.25;;;16.17;100.00
23164;BME280;31429;42.674;23.350;2022-09-09T05:08:54;94901.00;;;16.86;100.00
23164;BME280;31429;42.674;23.350;2022-09-09T05:09:55;94944.63;;;17.33;100.00
23164;BME280;31429;42.674;23.350;2022-09-09T05:10:57;94842.41;;;16.86;100.00
23164;BME280;31429;42.674;23.350;2022-09-09T05:12:00;94697.03;;;16.01;100.00
23164;BME280;31429;42.674;23.350;2022-09-09T05:13:01;94827.56;;;16.90;100.00
23164;BME280;31429;42.674;23.350;2022-09-09T05:14:03;94825.81;;;16.76;100.00
23164;BME280;31429;42.674;23.350;2022-09-09T05:15:25;94667.94;;;15.71;100.00
23164;BME280;31429;42.674;23.350;2022-09-09T05:16:26;94973.78;;;17.35;100.00
23164;BME280;31429;42.674;23.350;2022-09-09T05:17:28;94798.50;;;16.30;100.00
23164;BME280;31429;42.674;23.350;2022-09-09T05:18:29;94896.81;;;16.69;100.00
23164;BME280;31429;42.674;23.350;2022-09-09T05:19:30;94713.28;;;15.59;100.00
23164;BME280;31429;42.674;23.350;2022-09-09T05:20:32;94740.84;;;15.87;100.00
23164;BME280;31429;42.674;23.350;2022-09-09T05:21:36;94700.78;;;15.67;100.00
23164;BME280;31429;42.674;23.350;2022-09-09T05:22:37;94740.78;;;15.88;100.00
23164;BME280;31429;42.674;23.350;2022-09-09T05:23:39;94789.47;;;16.37;100.00
23164;BME280;31429;42.674;23.350;2022-09-09T05:24:42;94954.22;;;17.45;100.00
23164;BME280;31429;42.674;23.350;2022-09-09T05:25:43;94965.09;;;17.64;100.00
23164;BME280;31429;42.674;23.350;2022-09-09T05:26:47;94770.41;;;16.67;100.00
23164;BME280;31429;42.674;23.350;2022-09-09T05:27:49;94888.00;;;17.70;100.00
23164;BME280;31429;42.674;23.350;2022-09-09T05:28:57;94792.75;;;17.09;100.00
23164;BME280;31429;42.674;23.350;2022-09-09T05:30:00;94819.59;;;17.21;100.00
23164;BME280;31429;42.674;23.350;2022-09-09T05:31:05;94873.06;;;17.47;100.00
23164;BME280;31429;42.674;23.350;2022-09-09T05:32:33;94711.13;;;16.38;100.00
23164;BME280;31429;42.674;23.350;2022-09-09T05:33:37;94870.91;;;17.68;100.00
23164;BME280;31429;42.674;23.350;2022-09-09T05:35:00;94766.66;;;17.14;100.00
23164;BME280;31429;42.674;23.350;2022-09-09T05:36:07;94914.94;;;18.07;100.00
23164;BME280;31429;42.674;23.350;2022-09-09T05:37:12;94808.03;;;17.27;100.00
23164;BME280;31429;42.674;23.350;2022-09-09T05:39:12;94728.59;;;16.89;100.00
23164;BME280;31429;42.674;23.350;2022-09-09T05:40:13;94804.91;;;17.48;100.00
23164;BME280;31429;42.674;23.350;2022-09-09T05:41:15;94730.75;;;17.09;100.00
23164;BME280;31429;42.674;23.350;2022-09-09T05:42:20;94948.66;;;18.45;100.00
23164;BME280;31429;42.674;23.350;2022-09-09T05:43:45;94915.22;;;18.03;100.00
23164;BME280;31429;42.674;23.350;2022-09-09T05:45:13;94676.38;;;16.57;100.00
23164;BME280;31429;42.674;23.350;2022-09-09T05:46:17;94683.06;;;16.88;100.00
23164;BME280;31429;42.674;23.350;2022-09-09T05:47:23;94828.53;;;17.83;100.00
23164;BME280;31429;42.674;23.350;2022-09-09T05:48:24;94923.53;;;18.47;100.00
23164;BME280;31429;42.674;23.350;2022-09-09T05:49:48;94963.91;;;18.89;100.00
23164;BME280;31429;42.674;23.350;2022-09-09T05:51:06;94949.19;;;18.89;100.00
23164;BME280;31429;42.674;23.350;2022-09-09T05:52:07;94931.03;;;20.25;100.00
23164;BME280;31429;42.674;23.350;2022-09-09T05:53:13;94931.28;;;20.68;100.00
23164;BME280;31429;42.674;23.350;2022-09-09T05:54:15;94906.75;;;20.14;100.00
23164;BME280;31429;42.674;23.350;2022-09-09T05:55:19;94848.19;;;19.13;100.00
23164;BME280;31429;42.674;23.350;2022-09-09T05:56:23;94911.34;;;19.25;100.00
23164;BME280;31429;42.674;23.350;2022-09-09T05:57:25;94897.22;;;19.29;100.00
23164;BME280;31429;42.674;23.350;2022-09-09T05:58:28;94890.19;;;18.93;100.00
23164;BME280;31429;42.674;23.350;2022-09-09T05:59:29;94857.38;;;18.56;100.00
23164;BME280;31429;42.674;23.350;2022-09-09T06:00:31;94952.00;;;19.49;100.00
23164;BME280;31429;42.674;23.350;2022-09-09T06:01:52;94943.78;;;19.56;100.00
23164;BME280;31429;42.674;23.350;2022-09-09T06:02:54;94876.72;;;19.13;100.00
23164;BME280;31429;42.674;23.350;2022-09-09T06:03:56;94714.88;;;18.07;100.00
23164;BME280;31429;42.674;23.350;2022-09-09T06:04:57;94942.16;;;19.04;100.00
23164;BME280;31429;42.674;23.350;2022-09-09T06:06:00;94854.75;;;18.43;100.00
23164;BME280;31429;42.674;23.350;2022-09-09T06:07:01;94740.38;;;17.61;100.00
23164;BME280;31429;42.674;23.350;2022-09-09T06:08:03;94833.06;;;18.06;100.00
23164;BME280;31429;42.674;23.350;2022-09-09T06:09:12;94736.91;;;17.48;100.00
23164;BME280;31429;42.674;23.350;2022-09-09T06:10:17;94951.88;;;19.51;100.00
23164;BME280;31429;42.674;23.350;2022-09-09T06:11:24;94745.41;;;18.14;100.00
23164;BME280;31429;42.674;23.350;2022-09-09T06:12:28;94763.19;;;18.31;100.00
23164;BME280;31429;42.674;23.350;2022-09-09T06:13:50;94831.59;;;18.67;100.00
23164;BME280;31429;42.674;23.350;2022-09-09T06:14:56;94795.25;;;18.56;100.00
23164;BME280;31429;42.674;23.350;2022-09-09T06:15:58;94731.22;;;18.94;100.00
23164;BME280;31429;42.674;23.350;2022-09-09T06:17:02;94886.72;;;19.92;100.00
23164;BME280;31429;42.674;23.350;2022-09-09T06:18:04;94865.50;;;19.74;100.00
23164;BME280;31429;42.674;23.350;2022-09-09T06:19:11;94912.91;;;19.76;100.00
23164;BME280;31429;42.674;23.350;2022-09-09T06:20:16;94748.63;;;18.56;100.00
23164;BME280;31429;42.674;23.350;2022-09-09T06:21:20;94917.03;;;19.42;100.00
23164;BME280;31429;42.674;23.350;2022-09-09T06:22:21;94767.66;;;18.29;100.00
23164;BME280;31429;42.674;23.350;2022-09-09T06:23:24;94769.84;;;18.10;100.00
23164;BME280;31429;42.674;23.350;2022-09-09T06:24:32;94712.06;;;18.10;100.00
23164;BME280;31429;42.674;23.350;2022-09-09T06:25:34;94972.66;;;19.87;100.00
23164;BME280;31429;42.674;23.350;2022-09-09T06:26:42;94973.13;;;20.05;100.00
23164;BME280;31429;42.674;23.350;2022-09-09T06:27:43;94908.63;;;19.52;100.00
23164;BME280;31429;42.674;23.350;2022-09-09T06:28:57;94762.09;;;18.48;100.00
23164;BME280;31429;42.674;23.350;2022-09-09T06:30:03;94807.97;;;18.84;100.00
23164;BME280;31429;42.674;23.350;2022-09-09T06:31:10;94757.53;;;18.64;100.00
23164;BME280;31429;42.674;23.350;2022-09-09T06:32:34;94967.84;;;20.30;100.00
23164;BME280;31429;42.674;23.350;2022-09-09T06:33:40;94840.16;;;19.78;100.00
23164;BME280;31429;42.674;23.350;2022-09-09T06:34:45;94941.19;;;20.28;100.00
23164;BME280;31429;42.674;23.350;2022-09-09T06:35:51;94939.25;;;19.83;100.00
23164;BME280;31429;42.674;23.350;2022-09-09T06:36:53;94988.75;;;20.87;100.00
23164;BME280;31429;42.674;23.350;2022-09-09T06:37:59;94978.09;;;21.14;100.00
23164;BME280;31429;42.674;23.350;2022-09-09T06:39:21;94904.34;;;21.48;100.00
23164;BME280;31429;42.674;23.350;2022-09-09T06:40:28;94798.78;;;20.57;100.00
23164;BME280;31429;42.674;23.350;2022-09-09T06:41:54;94776.59;;;21.19;100.00
23164;BME280;31429;42.674;23.350;2022-09-09T06:43:05;94957.88;;;22.49;100.00
23164;BME280;31429;42.674;23.350;2022-09-09T06:44:34;94920.00;;;22.13;100.00
23164;BME280;31429;42.674;23.350;2022-09-09T06:45:39;94740.28;;;21.07;100.00
23164;BME280;31429;42.674;23.350;2022-09-09T06:47:07;94740.94;;;20.66;100.00
23164;BME280;31429;42.674;23.350;2022-09-09T06:48:55;94722.94;;;20.52;100.00
23164;BME280;31429;42.674;23.350;2022-09-09T06:50:22;94792.28;;;20.85;100.00
23164;BME280;31429;42.674;23.350;2022-09-09T06:51:46;94854.66;;;22.05;100.00
23164;BME280;31429;42.674;23.350;2022-09-09T06:53:12;94887.69;;;22.57;100.00
23164;BME280;31429;42.674;23.350;2022-09-09T06:54:57;94745.69;;;22.01;100.00
23164;BME280;31429;42.674;23.350;2022-09-09T06:56:27;94830.38;;;22.78;100.00
23164;BME280;31429;42.674;23.350;2022-09-09T06:57:30;94882.25;;;23.32;100.00
23164;BME280;31429;42.674;23.350;2022-09-09T06:58:38;94885.38;;;23.26;100.00
23164;BME280;31429;42.674;23.350;2022-09-09T07:36:20;94692.41;;;23.05;100.00
23164;BME280;31429;42.674;23.350;2022-09-09T07:38:06;94751.50;;;23.16;85.25
23164;BME280;31429;42.674;23.350;2022-09-09T07:48:57;94749.31;;;22.30;100.00
23164;BME280;31429;42.674;23.350;2022-09-09T07:59:14;94820.06;;;23.37;77.19
23164;BME280;31429;42.674;23.350;2022-09-09T08:00:23;94720.66;;;22.90;82.96
23164;BME280;31429;42.674;23.350;2022-09-09T08:05:17;94974.00;;;25.24;100.00
23164;BME280;31429;42.674;23.350;2022-09-09T08:06:21;94816.13;;;24.21;100.00
23164;BME280;31429;42.674;23.350;2022-09-09T08:07:47;94853.25;;;24.43;100.00
23164;BME280;31429;42.674;23.350;2022-09-09T08:09:24;94750.50;;;23.85;84.39
23164;BME280;31429;42.674;23.350;2022-09-09T08:35:51;94918.06;;;25.34;100.00
23164;BME280;31429;42.674;23.350;2022-09-09T08:36:57;94893.25;;;24.63;75.72
23164;BME280;31429;42.674;23.350;2022-09-09T20:18:55;94742.13;;;21.38;100.00
23164;BME280;31429;42.674;23.350;2022-09-09T20:28:00;94640.09;;;20.92;100.00
23164;BME280;31429;42.674;23.350;2022-09-09T20:31:30;94654.66;;;20.94;100.00
23164;BME280;31429;42.674;23.350;2022-09-09T21:07:18;94764.28;;;20.88;100.00
23164;BME280;31429;42.674;23.350;2022-09-09T21:09:07;94537.88;;;19.39;100.00
23164;BME280;31429;42.674;23.350;2022-09-09T21:11:17;94650.66;;;20.01;100.00
23164;BME280;31429;42.674;23.350;2022-09-09T21:28:41;94620.69;;;19.29;100.00
23164;BME280;31429;42.674;23.350;2022-09-09T21:30:05;94524.00;;;18.70;100.00
23164;BME280;31429;42.674;23.350;2022-09-09T21:31:59;94504.50;;;18.54;100.00
23164;BME280;31429;42.674;23.350;2022-09-09T22:13:08;94495.25;;;18.15;100.00
23164;BME280;31429;42.674;23.350;2022-09-09T22:14:18;94496.84;;;18.05;100.00
23164;BME280;31429;42.674;23.350;2022-09-09T22:15:24;94476.84;;;18.07;100.00
23164;BME280;31429;42.674;23.350;2022-09-09T22:16:29;94600.28;;;18.90;100.00
23164;BME280;31429;42.674;23.350;2022-09-09T22:17:43;94471.28;;;18.24;100.00
23164;BME280;31429;42.674;23.350;2022-09-09T22:19:04;94498.16;;;18.34;100.00
23164;BME280;31429;42.674;23.350;2022-09-09T22:20:20;94597.94;;;18.98;100.00
23164;BME280;31429;42.674;23.350;2022-09-09T22:21:31;94465.06;;;18.03;100.00
23164;BME280;31429;42.674;23.350;2022-09-09T22:22:39;94497.28;;;18.22;100.00
23164;BME280;31429;42.674;23.350;2022-09-09T22:23:50;94766.25;;;19.83;100.00
23164;BME280;31429;42.674;23.350;2022-09-09T22:24:58;94744.19;;;19.78;100.00
23164;BME280;31429;42.674;23.350;2022-09-09T22:26:26;94572.06;;;18.74;100.00
23164;BME280;31429;42.674;23.350;2022-09-09T22:27:53;94495.25;;;18.15;100.00
23164;BME280;31429;42.674;23.350;2022-09-09T22:31:14;94741.94;;;19.84;100.00
23164;BME280;31429;42.674;23.350;2022-09-09T22:32:17;94484.06;;;18.14;100.00
23164;BME280;31429;42.674;23.350;2022-09-09T22:33:41;94638.78;;;19.18;100.00
23164;BME280;31429;42.674;23.350;2022-09-09T22:36:34;94704.69;;;19.50;100.00